createdAt,value
2023-05-14T00:01:39.480Z,6.45
2023-05-14T00:04:06.506Z,5.55
2023-05-14T00:06:33.457Z,5.57
2023-05-14T00:09:00.478Z,5.55
2023-05-14T00:11:27.615Z,6.25
2023-05-14T00:13:54.442Z,6.13
2023-05-14T00:16:21.399Z,6.65
2023-05-14T00:18:48.459Z,6.13
2023-05-14T00:21:15.411Z,5.88
2023-05-14T00:23:42.449Z,6.50
2023-05-14T00:26:09.308Z,6.18
2023-05-14T00:28:37.262Z,5.78
2023-05-14T00:31:04.298Z,6.00
2023-05-14T00:33:31.137Z,6.10
2023-05-14T00:35:57.995Z,5.60
2023-05-14T00:38:27.632Z,5.63
2023-05-14T00:40:54.544Z,6.65
2023-05-14T00:43:22.528Z,5.78
2023-05-14T00:45:55.220Z,5.03
2023-05-14T00:48:23.027Z,6.20
2023-05-14T00:50:51.125Z,5.93
2023-05-14T00:53:21.342Z,5.60
2023-05-14T00:55:50.323Z,6.55
2023-05-14T00:58:18.597Z,5.80
2023-05-14T01:00:45.452Z,4.68
2023-05-14T01:03:12.350Z,6.07
2023-05-14T01:06:09.655Z,5.30
2023-05-14T01:09:13.483Z,5.57
2023-05-14T01:12:05.662Z,5.82
2023-05-14T01:14:52.575Z,5.60
2023-05-14T01:17:22.804Z,6.18
2023-05-14T01:19:52.037Z,6.38
2023-05-14T01:22:19.043Z,6.50
2023-05-14T01:24:45.922Z,5.60
2023-05-14T01:27:42.473Z,6.15
2023-05-14T01:30:34.170Z,5.40
2023-05-14T01:33:06.314Z,5.47
2023-05-14T01:35:33.544Z,5.75
2023-05-14T01:38:02.083Z,5.82
2023-05-14T01:40:29.863Z,6.35
2023-05-14T01:42:57.414Z,6.00
2023-05-14T01:45:24.702Z,6.00
2023-05-14T01:47:51.963Z,5.72
2023-05-14T01:50:19.021Z,6.43
2023-05-14T01:52:45.842Z,6.35
2023-05-14T01:55:12.759Z,6.05
2023-05-14T01:57:39.674Z,6.57
2023-05-14T02:00:07.575Z,5.70
2023-05-14T02:02:41.032Z,5.93
2023-05-14T02:05:10.864Z,6.53
2023-05-14T02:07:37.686Z,5.32
2023-05-14T02:10:05.187Z,5.82
2023-05-14T02:12:31.958Z,6.18
2023-05-14T02:14:58.755Z,6.30
2023-05-14T02:17:26.607Z,5.55
2023-05-14T02:19:54.462Z,5.38
2023-05-14T02:22:21.321Z,5.90
2023-05-14T02:24:49.721Z,5.75
2023-05-14T02:27:17.998Z,6.40
2023-05-14T02:29:44.944Z,6.07
2023-05-14T02:32:11.838Z,6.35
2023-05-14T02:34:39.416Z,5.75
2023-05-14T02:37:06.576Z,6.97
2023-05-14T02:39:33.440Z,6.00
2023-05-14T02:42:00.267Z,6.57
2023-05-14T02:44:27.132Z,6.80
2023-05-14T02:46:53.947Z,6.47
2023-05-14T02:49:20.943Z,6.25
2023-05-14T02:51:47.715Z,6.28
2023-05-14T02:54:16.409Z,6.13
2023-05-14T02:56:43.440Z,7.05
2023-05-14T02:59:10.557Z,6.70
2023-05-14T03:01:37.918Z,6.38
2023-05-14T03:04:05.603Z,6.95
2023-05-14T03:06:32.395Z,6.25
2023-05-14T03:08:59.390Z,6.57
2023-05-14T03:11:26.250Z,7.50
2023-05-14T03:13:53.178Z,6.00
2023-05-14T03:16:20.054Z,6.40
2023-05-14T03:18:46.911Z,5.93
2023-05-14T03:21:13.882Z,6.30
2023-05-14T03:23:40.900Z,6.43
2023-05-14T03:26:08.318Z,6.95
2023-05-14T03:28:35.212Z,6.72
2023-05-14T03:31:02.177Z,5.90
2023-05-14T03:33:31.111Z,6.60
2023-05-14T03:35:57.938Z,5.65
2023-05-14T03:38:24.813Z,6.18
2023-05-14T03:40:51.594Z,7.03
2023-05-14T03:43:18.501Z,5.82
2023-05-14T03:45:45.529Z,7.25
2023-05-14T03:48:12.475Z,7.00
2023-05-14T03:50:39.511Z,6.35
2023-05-14T03:53:06.567Z,7.50
2023-05-14T03:55:33.348Z,6.55
2023-05-14T03:58:00.511Z,7.43
2023-05-14T04:00:27.382Z,7.95
2023-05-14T04:02:54.381Z,6.75
2023-05-14T04:05:23.578Z,6.28
2023-05-14T04:07:52.470Z,7.25
2023-05-14T04:10:20.505Z,7.20
2023-05-14T04:12:47.337Z,7.25
2023-05-14T04:15:14.365Z,7.53
2023-05-14T04:17:42.823Z,7.72
2023-05-14T04:20:10.021Z,7.57
2023-05-14T04:22:36.853Z,7.28
2023-05-14T04:25:03.716Z,8.05
2023-05-14T04:27:30.714Z,8.02
2023-05-14T04:29:58.188Z,7.95
2023-05-14T04:32:25.628Z,8.23
2023-05-14T04:34:52.528Z,7.45
2023-05-14T04:37:19.312Z,7.47
2023-05-14T04:39:46.070Z,7.70
2023-05-14T04:42:13.822Z,7.80
2023-05-14T04:44:40.635Z,9.07
2023-05-14T04:47:07.541Z,8.63
2023-05-14T04:49:34.351Z,8.23
2023-05-14T04:52:02.530Z,8.23
2023-05-14T04:54:29.385Z,7.57
2023-05-14T04:56:56.265Z,8.40
2023-05-14T04:59:23.112Z,8.20
2023-05-14T05:01:50.006Z,7.68
2023-05-14T05:04:16.875Z,8.10
2023-05-14T05:06:43.783Z,7.88
2023-05-14T05:09:10.554Z,8.27
2023-05-14T05:11:38.761Z,8.90
2023-05-14T05:14:05.699Z,7.97
2023-05-14T05:16:32.637Z,8.05
2023-05-14T05:18:59.700Z,9.93
2023-05-14T05:21:26.751Z,8.98
2023-05-14T05:23:53.558Z,8.25
2023-05-14T05:26:22.265Z,8.32
2023-05-14T05:28:49.150Z,7.72
2023-05-14T05:31:20.041Z,8.70
2023-05-14T05:33:47.320Z,8.45
2023-05-14T05:36:14.337Z,8.43
2023-05-14T05:38:41.343Z,10.02
2023-05-14T05:41:08.123Z,9.13
2023-05-14T05:43:37.929Z,8.63
2023-05-14T05:46:04.886Z,9.57
2023-05-14T05:48:32.131Z,9.30
2023-05-14T05:51:02.269Z,10.00
2023-05-14T05:53:29.102Z,9.07
2023-05-14T05:55:56.338Z,9.80
2023-05-14T05:58:23.492Z,10.15
2023-05-14T06:00:50.341Z,9.45
2023-05-14T06:03:17.195Z,8.88
2023-05-14T06:05:44.711Z,9.45
2023-05-14T06:08:11.644Z,9.02
2023-05-14T06:10:38.401Z,9.05
2023-05-14T06:13:05.297Z,8.95
2023-05-14T06:15:32.195Z,10.43
2023-05-14T06:17:59.107Z,11.00
2023-05-14T06:20:26.181Z,11.05
2023-05-14T06:22:53.278Z,9.85
2023-05-14T06:25:20.338Z,10.48
2023-05-14T06:27:47.389Z,10.23
2023-05-14T06:30:14.752Z,10.45
2023-05-14T06:32:41.792Z,10.27
2023-05-14T06:35:09.258Z,10.02
2023-05-14T06:37:36.217Z,9.40
2023-05-14T06:40:03.661Z,9.63
2023-05-14T06:42:30.509Z,10.02
2023-05-14T06:44:58.377Z,10.95
2023-05-14T06:47:25.499Z,10.25
2023-05-14T06:49:52.486Z,10.75
2023-05-14T06:52:19.399Z,10.32
2023-05-14T06:54:46.378Z,10.85
2023-05-14T06:57:14.180Z,9.90
2023-05-14T06:59:41.285Z,10.80
2023-05-14T07:02:08.152Z,10.23
2023-05-14T07:04:35.091Z,10.80
2023-05-14T07:07:02.066Z,10.32
2023-05-14T07:09:28.823Z,9.50
2023-05-14T07:11:55.697Z,10.23
2023-05-14T07:14:22.453Z,10.05
2023-05-14T07:16:49.325Z,10.18
2023-05-14T07:19:16.290Z,10.07
2023-05-14T07:21:43.167Z,10.68
2023-05-14T07:24:09.978Z,10.77
2023-05-14T07:26:36.899Z,11.40
2023-05-14T07:29:03.729Z,10.55
2023-05-14T07:31:30.905Z,9.95
2023-05-14T07:33:58.000Z,10.55
2023-05-14T07:36:25.285Z,10.30
2023-05-14T07:38:52.117Z,11.13
2023-05-14T07:41:19.008Z,12.02
2023-05-14T07:43:46.132Z,10.60
2023-05-14T07:46:13.003Z,12.35
2023-05-14T07:48:39.912Z,12.35
2023-05-14T07:51:07.012Z,14.00
2023-05-14T07:53:33.827Z,13.18
2023-05-14T07:56:00.966Z,12.05
2023-05-14T07:58:28.829Z,10.70
2023-05-14T08:00:56.749Z,9.93
2023-05-14T08:03:23.873Z,9.25
2023-05-14T08:05:51.760Z,8.48
2023-05-14T08:08:18.562Z,9.40
2023-05-14T08:10:45.552Z,9.40
2023-05-14T08:13:12.392Z,10.75
2023-05-14T08:15:39.195Z,10.52
2023-05-14T08:18:06.179Z,11.00
2023-05-14T08:20:33.129Z,10.07
2023-05-14T08:22:59.901Z,10.40
2023-05-14T08:25:26.790Z,8.88
2023-05-14T08:27:54.222Z,9.70
2023-05-14T08:30:22.767Z,9.18
2023-05-14T08:32:49.946Z,8.52
2023-05-14T08:35:17.943Z,9.48
2023-05-14T08:37:44.982Z,8.00
2023-05-14T08:40:13.222Z,7.75
2023-05-14T08:42:44.812Z,8.75
2023-05-14T08:45:19.410Z,7.38
2023-05-14T08:47:50.933Z,8.10
2023-05-14T08:50:22.413Z,7.25
2023-05-14T08:52:50.197Z,7.70
2023-05-14T08:55:17.438Z,8.40
2023-05-14T08:57:44.955Z,11.65
2023-05-14T09:00:12.418Z,11.50
2023-05-14T09:02:44.229Z,12.25
2023-05-14T09:05:11.294Z,8.52
2023-05-14T09:07:38.464Z,7.35
2023-05-14T09:10:06.036Z,7.85
2023-05-14T09:12:32.906Z,6.75
2023-05-14T09:14:59.725Z,7.78
2023-05-14T09:17:30.028Z,7.13
2023-05-14T09:19:56.939Z,7.25
2023-05-14T09:22:23.828Z,7.82
2023-05-14T09:25:03.779Z,7.47
2023-05-14T09:27:31.975Z,6.60
2023-05-14T09:30:12.538Z,7.75
2023-05-14T09:32:41.378Z,8.20
2023-05-14T09:35:22.508Z,6.53
2023-05-14T09:37:54.966Z,7.03
2023-05-14T09:40:24.370Z,6.80
2023-05-14T09:42:51.513Z,6.38
2023-05-14T09:45:18.461Z,8.23
2023-05-14T09:47:45.670Z,7.28
2023-05-14T09:50:13.236Z,7.00
2023-05-14T09:52:40.303Z,7.00
2023-05-14T09:55:08.048Z,9.25
2023-05-14T09:57:35.379Z,8.25
2023-05-14T10:00:02.311Z,7.22
2023-05-14T10:02:37.672Z,7.03
2023-05-14T10:05:07.098Z,6.55
2023-05-14T10:07:44.467Z,6.90
2023-05-14T10:10:15.632Z,6.72
2023-05-14T10:12:46.760Z,6.10
2023-05-14T10:15:19.522Z,6.40
2023-05-14T10:17:53.126Z,6.78
2023-05-14T10:20:22.849Z,7.55
2023-05-14T10:22:50.593Z,6.68
2023-05-14T10:25:17.589Z,6.93
2023-05-14T10:27:44.926Z,6.13
2023-05-14T10:30:12.858Z,6.72
2023-05-14T10:32:41.824Z,7.72
2023-05-14T10:35:25.392Z,6.80
2023-05-14T10:37:52.256Z,9.18
2023-05-14T10:40:20.609Z,9.63
2023-05-14T10:42:47.833Z,7.90
2023-05-14T10:45:15.756Z,6.70
2023-05-14T10:47:45.381Z,5.97
2023-05-14T10:50:14.350Z,5.90
2023-05-14T10:52:43.541Z,6.75
2023-05-14T10:55:14.091Z,6.68
2023-05-14T10:57:43.738Z,7.20
2023-05-14T11:00:14.011Z,7.07
2023-05-14T11:02:42.982Z,6.22
2023-05-14T11:05:17.787Z,6.15
2023-05-14T11:07:47.094Z,6.78
2023-05-14T11:10:22.277Z,6.03
2023-05-14T11:12:51.416Z,5.93
2023-05-14T11:15:20.659Z,5.45
2023-05-14T11:17:49.453Z,6.80
2023-05-14T11:20:17.175Z,5.97
2023-05-14T11:22:45.374Z,5.30
2023-05-14T11:25:18.333Z,5.88
2023-05-14T11:27:46.881Z,6.47
2023-05-14T11:30:16.042Z,5.80
2023-05-14T11:32:46.033Z,5.25
2023-05-14T11:35:13.642Z,5.85
2023-05-14T11:37:40.739Z,5.53
2023-05-14T11:40:13.899Z,6.43
2023-05-14T11:42:40.755Z,5.35
2023-05-14T11:45:11.833Z,5.72
2023-05-14T11:47:39.214Z,6.53
2023-05-14T11:50:09.127Z,8.00
2023-05-14T11:52:42.251Z,7.68
2023-05-14T11:55:12.866Z,7.50
2023-05-14T11:57:40.895Z,9.90
2023-05-14T12:00:16.937Z,9.50
2023-05-14T12:02:43.998Z,6.38
2023-05-14T12:05:13.393Z,6.20
2023-05-14T12:07:41.899Z,4.70
2023-05-14T12:10:09.049Z,5.30
2023-05-14T12:12:39.432Z,6.05
2023-05-14T12:15:13.842Z,5.32
2023-05-14T12:17:41.513Z,5.50
2023-05-14T12:20:12.334Z,5.78
2023-05-14T12:22:41.432Z,4.88
2023-05-14T12:25:15.849Z,9.68
2023-05-14T12:27:45.525Z,14.25
2023-05-14T12:30:21.283Z,11.60
2023-05-14T12:32:51.660Z,8.02
2023-05-14T12:35:19.041Z,6.35
2023-05-14T12:37:45.937Z,5.90
2023-05-14T12:40:12.967Z,6.65
2023-05-14T12:42:39.986Z,6.32
2023-05-14T12:45:08.461Z,6.30
2023-05-14T12:47:36.181Z,6.10
2023-05-14T12:50:03.601Z,5.88
2023-05-14T12:52:37.530Z,6.40
2023-05-14T12:55:07.418Z,5.38
2023-05-14T12:57:35.459Z,6.03
2023-05-14T13:00:06.830Z,6.13
2023-05-14T13:02:43.193Z,6.00
2023-05-14T13:05:11.650Z,6.22
2023-05-14T13:07:38.908Z,5.90
2023-05-14T13:10:06.620Z,6.00
2023-05-14T13:12:33.485Z,6.53
2023-05-14T13:15:00.517Z,5.90
2023-05-14T13:17:27.566Z,6.10
2023-05-14T13:19:54.561Z,6.50
2023-05-14T13:22:21.412Z,5.85
2023-05-14T13:24:48.278Z,5.75
2023-05-14T13:27:16.377Z,5.65
2023-05-14T13:29:43.320Z,6.38
2023-05-14T13:32:12.426Z,5.78
2023-05-14T13:34:39.613Z,5.93
2023-05-14T13:37:07.514Z,6.72
2023-05-14T13:39:34.419Z,5.82
2023-05-14T13:42:01.326Z,4.95
2023-05-14T13:44:28.223Z,5.10
2023-05-14T13:46:55.194Z,5.28
2023-05-14T13:49:22.413Z,5.40
2023-05-14T13:51:49.272Z,5.20
2023-05-14T13:54:16.170Z,4.82
2023-05-14T13:56:43.016Z,5.20
2023-05-14T13:59:11.373Z,4.88
2023-05-14T14:01:38.350Z,4.80
2023-05-14T14:04:05.401Z,5.32
2023-05-14T14:06:33.284Z,4.57
2023-05-14T14:09:00.352Z,4.55
2023-05-14T14:11:27.745Z,4.60
2023-05-14T14:13:54.688Z,5.35
2023-05-14T14:16:25.412Z,4.63
2023-05-14T14:18:52.504Z,5.70
2023-05-14T14:21:20.934Z,5.30
2023-05-14T14:23:48.123Z,5.75
2023-05-14T14:26:14.918Z,5.43
2023-05-14T14:28:42.021Z,5.25
2023-05-14T14:31:08.954Z,5.25
2023-05-14T14:33:35.861Z,5.18
2023-05-14T14:36:02.718Z,5.45
2023-05-14T14:38:29.532Z,4.40
2023-05-14T14:40:57.543Z,4.05
2023-05-14T14:43:24.752Z,3.60
2023-05-14T14:45:51.586Z,3.80
2023-05-14T14:48:33.890Z,3.60
2023-05-14T14:51:01.477Z,3.20
2023-05-14T14:53:28.379Z,2.97
2023-05-14T14:55:56.228Z,3.83
2023-05-14T14:58:23.932Z,2.63
2023-05-14T15:00:53.398Z,2.47
2023-05-14T15:03:21.290Z,3.00
2023-05-14T15:05:48.873Z,3.30
2023-05-14T15:08:15.933Z,3.40
2023-05-14T15:10:44.093Z,3.03
2023-05-14T15:13:12.332Z,4.55
2023-05-14T15:15:39.177Z,3.50
2023-05-14T15:18:06.145Z,4.07
2023-05-14T15:20:33.139Z,2.85
2023-05-14T15:23:00.058Z,3.30
2023-05-14T15:25:27.338Z,2.88
2023-05-14T15:27:54.250Z,2.80
2023-05-14T15:30:21.059Z,3.15
2023-05-14T15:32:47.957Z,2.90
2023-05-14T15:35:14.908Z,2.90
2023-05-14T15:37:43.755Z,3.78
2023-05-14T15:40:11.792Z,3.67
2023-05-14T15:42:41.854Z,5.78
2023-05-14T15:45:10.329Z,6.70
2023-05-14T15:47:37.381Z,4.25
2023-05-14T15:50:05.329Z,3.85
2023-05-14T15:52:32.466Z,4.07
2023-05-14T15:54:59.618Z,3.83
2023-05-14T15:57:27.466Z,3.97
2023-05-14T15:59:54.331Z,4.60
2023-05-14T16:02:21.143Z,4.55
2023-05-14T16:04:49.452Z,3.80
2023-05-14T16:07:16.433Z,3.60
2023-05-14T16:09:43.469Z,3.55
2023-05-14T16:12:10.521Z,3.53
2023-05-14T16:14:38.330Z,3.95
2023-05-14T16:17:06.361Z,3.90
2023-05-14T16:19:33.174Z,3.60
2023-05-14T16:21:59.937Z,4.30
2023-05-14T16:24:26.916Z,4.75
2023-05-14T16:26:54.108Z,4.55
2023-05-14T16:29:20.904Z,5.00
2023-05-14T16:31:47.737Z,4.28
2023-05-14T16:34:14.637Z,4.88
2023-05-14T16:36:41.482Z,4.05
2023-05-14T16:39:08.717Z,4.72
2023-05-14T16:41:36.075Z,4.78
2023-05-14T16:44:04.096Z,4.70
2023-05-14T16:46:32.441Z,4.68
2023-05-14T16:48:59.396Z,4.80
2023-05-14T16:51:26.212Z,5.88
2023-05-14T16:53:55.457Z,5.72
2023-05-14T16:56:22.708Z,4.68
2023-05-14T16:58:49.811Z,5.18
2023-05-14T17:01:16.696Z,4.85
2023-05-14T17:03:45.506Z,4.93
2023-05-14T17:06:12.420Z,9.43
2023-05-14T17:08:39.621Z,7.28
2023-05-14T17:11:06.523Z,5.55
2023-05-14T17:13:34.117Z,5.20
2023-05-14T17:16:02.136Z,5.07
2023-05-14T17:18:29.159Z,6.50
2023-05-14T17:20:56.034Z,5.85
2023-05-14T17:23:23.020Z,7.25
2023-05-14T17:25:50.127Z,5.80
2023-05-14T17:28:17.058Z,4.97
2023-05-14T17:30:43.924Z,4.75
2023-05-14T17:33:11.699Z,4.80
2023-05-14T17:35:38.891Z,4.40
2023-05-14T17:38:06.042Z,4.45
2023-05-14T17:40:33.492Z,4.43
2023-05-14T17:43:00.847Z,4.40
2023-05-14T17:45:29.489Z,4.25
2023-05-14T17:47:59.212Z,4.60
2023-05-14T17:50:26.088Z,4.70
2023-05-14T17:52:53.652Z,4.63
2023-05-14T17:55:21.295Z,4.47
2023-05-14T17:57:48.250Z,4.68
2023-05-14T18:00:15.255Z,4.57
2023-05-14T18:02:42.168Z,4.32
2023-05-14T18:05:09.222Z,3.83
2023-05-14T18:07:36.692Z,4.35
2023-05-14T18:10:04.248Z,4.82
2023-05-14T18:12:31.178Z,4.38
2023-05-14T18:14:58.053Z,4.53
2023-05-14T18:17:24.917Z,5.00
2023-05-14T18:19:51.841Z,4.18
2023-05-14T18:22:21.355Z,4.47
2023-05-14T18:24:48.169Z,4.63
2023-05-14T18:27:15.059Z,4.38
2023-05-14T18:29:42.737Z,4.05
2023-05-14T18:32:09.797Z,4.88
2023-05-14T18:34:36.693Z,4.40
2023-05-14T18:37:03.667Z,4.28
2023-05-14T18:39:30.471Z,3.90
2023-05-14T18:41:57.473Z,5.72
2023-05-14T18:44:24.269Z,4.88
2023-05-14T18:46:51.381Z,4.65
2023-05-14T18:49:18.191Z,4.30
2023-05-14T18:51:45.242Z,4.40
2023-05-14T18:54:14.480Z,4.25
2023-05-14T18:56:46.826Z,4.50
2023-05-14T18:59:14.766Z,4.38
2023-05-14T19:01:41.620Z,4.78
2023-05-14T19:04:08.589Z,5.90
2023-05-14T19:06:36.191Z,5.43
2023-05-14T19:09:04.196Z,4.28
2023-05-14T19:11:31.033Z,4.85
2023-05-14T19:13:58.091Z,5.07
2023-05-14T19:16:24.986Z,4.80
2023-05-14T19:18:52.322Z,4.85
2023-05-14T19:21:19.209Z,4.82
2023-05-14T19:23:46.041Z,4.90
2023-05-14T19:26:12.933Z,4.88
2023-05-14T19:28:40.414Z,4.97
2023-05-14T19:31:07.257Z,5.10
2023-05-14T19:33:34.463Z,5.30
2023-05-14T19:36:01.384Z,5.50
2023-05-14T19:38:29.608Z,5.65
2023-05-14T19:40:57.368Z,5.15
2023-05-14T19:43:25.645Z,13.77
2023-05-14T19:45:52.708Z,19.15
2023-05-14T19:48:20.005Z,11.35
2023-05-14T19:50:47.397Z,6.35
2023-05-14T19:53:14.682Z,6.63
2023-05-14T19:55:41.805Z,5.63
2023-05-14T19:58:09.025Z,5.68
2023-05-14T20:00:36.873Z,6.05
2023-05-14T20:03:04.324Z,5.32
2023-05-14T20:05:32.024Z,5.53
2023-05-14T20:07:58.899Z,6.18
2023-05-14T20:10:25.957Z,6.00
2023-05-14T20:12:53.112Z,5.88
2023-05-14T20:15:20.799Z,6.35
2023-05-14T20:17:47.690Z,6.07
2023-05-14T20:20:14.588Z,6.28
2023-05-14T20:22:42.767Z,6.65
2023-05-14T20:25:10.149Z,5.38
2023-05-14T20:27:37.188Z,6.50
2023-05-14T20:30:04.576Z,5.88
2023-05-14T20:32:31.468Z,5.75
2023-05-14T20:35:01.969Z,5.78
2023-05-14T20:37:33.055Z,6.55
2023-05-14T20:42:27.354Z,5.88
2023-05-14T20:44:54.969Z,7.10
2023-05-14T20:47:26.415Z,10.13
2023-05-14T20:49:53.451Z,9.35
2023-05-14T20:52:20.400Z,7.90
2023-05-14T20:54:47.337Z,6.53
2023-05-14T20:57:15.968Z,6.13
2023-05-14T20:59:43.067Z,6.18
2023-05-14T21:02:10.674Z,6.38
2023-05-14T21:04:38.152Z,6.38
2023-05-14T21:07:05.522Z,6.38
2023-05-14T21:09:32.321Z,7.00
2023-05-14T21:11:59.198Z,6.53
2023-05-14T21:14:26.100Z,5.70
2023-05-14T21:16:52.854Z,6.28
2023-05-14T21:19:19.853Z,5.68
2023-05-14T21:21:47.350Z,5.75
2023-05-14T21:24:16.610Z,6.88
2023-05-14T21:26:43.732Z,6.05
2023-05-14T21:29:11.058Z,6.03
2023-05-14T21:31:37.863Z,6.45
2023-05-14T21:34:04.801Z,5.97
2023-05-14T21:36:31.799Z,5.70
2023-05-14T21:38:58.636Z,7.22
2023-05-14T21:41:25.514Z,7.63
2023-05-14T21:43:52.486Z,7.00
2023-05-14T21:46:19.405Z,5.75
2023-05-14T21:48:46.343Z,6.13
2023-05-14T21:51:13.346Z,6.70
2023-05-14T21:53:40.215Z,6.75
2023-05-14T21:56:08.175Z,6.80
2023-05-14T21:58:35.705Z,6.45
2023-05-14T22:01:02.585Z,6.13
2023-05-14T22:03:29.557Z,6.93
2023-05-14T22:05:56.739Z,7.47
2023-05-14T22:08:23.996Z,7.53
2023-05-14T22:10:50.991Z,7.03
2023-05-14T22:13:17.883Z,7.13
2023-05-14T22:15:44.885Z,7.18
2023-05-14T22:18:12.820Z,6.82
2023-05-14T22:20:40.010Z,6.82
2023-05-14T22:23:07.116Z,6.50
2023-05-14T22:25:34.147Z,6.60
2023-05-14T22:28:01.002Z,6.95
2023-05-14T22:30:27.847Z,6.88
2023-05-14T22:32:54.792Z,6.55
2023-05-14T22:35:21.633Z,6.50
2023-05-14T22:37:48.602Z,6.90
2023-05-14T22:40:15.548Z,6.88
2023-05-14T22:42:42.394Z,7.13
2023-05-14T22:45:09.663Z,7.40
2023-05-14T22:47:37.999Z,6.93
2023-05-14T22:50:11.119Z,7.00
2023-05-14T22:52:39.138Z,6.43
2023-05-14T22:55:06.513Z,6.90
2023-05-14T22:57:34.361Z,7.43
2023-05-14T23:00:01.373Z,7.45
2023-05-14T23:02:28.415Z,7.63
2023-05-14T23:04:55.462Z,6.63
2023-05-14T23:07:22.680Z,7.40
2023-05-14T23:09:49.489Z,7.30
2023-05-14T23:12:16.356Z,7.18
2023-05-14T23:14:43.145Z,7.38
2023-05-14T23:17:10.009Z,7.75
2023-05-14T23:19:36.912Z,6.45
2023-05-14T23:22:03.972Z,6.93
2023-05-14T23:24:30.771Z,6.90
2023-05-14T23:26:57.635Z,6.82
2023-05-14T23:29:24.445Z,7.68
2023-05-14T23:31:51.422Z,6.60
2023-05-14T23:34:18.435Z,7.07
2023-05-14T23:36:45.514Z,7.32
2023-05-14T23:39:12.434Z,7.57
2023-05-14T23:41:39.279Z,7.80
2023-05-14T23:44:06.161Z,7.55
2023-05-14T23:46:33.429Z,7.65
2023-05-14T23:49:00.822Z,7.13
2023-05-14T23:51:27.754Z,6.65
2023-05-14T23:53:58.224Z,6.85
2023-05-14T23:56:26.126Z,7.80
2023-05-14T23:58:53.259Z,8.02
